RCSS/TSA METAR and TAF weather

Enter ICAO airport designator
Station Type Date Time Source
RCSS METAR 2020/04/09 19:00 UTC NOAA

RCSS 091900Z 11007KT 9999 FEW030 SCT080 18/15 Q1018 NOSIG RMK A3008


Station Type Date Time Source
RCSS Decoded METAR 2020/04/09 19:00 UTC NOAA

Sungshan / Taipei, Taiwan (RCSS) 25-04N 121-33E
Apr 09, 2020 - 03:00 PM EDT / 2020.04.09 1900 UTC
Wind: from the ESE (110 degrees) at 8 MPH (7 KT):0
Visibility: greater than 7 mile(s):0
Sky conditions: partly cloudy
Temperature: 64 F (18 C)
Dew Point: 59 F (15 C)
Relative Humidity: 82%
Pressure (altimeter): 30.06 in. Hg (1018 hPa)
ob: RCSS 091900Z 11007KT 9999 FEW030 SCT080 18/15 Q1018 NOSIG RMK A3008
cycle: 19

Station Type Date Time Source
RCSS TAF 2020/04/09 18:03 UTC NOAA

TAF RCSS 091700Z 0918/1018 09010KT 9999 FEW020 BKN080
TEMPO 1004/1010 09015KT FEW015 BKN032

Example: see airport list